Time;durP1;ratioP1;P1;durP2;ratioP2;P2;SDS_P1;SDS_P2;PMS_P1;PMS_P2;Temp;Humidity;BMP_temperature;BMP_pressure;BME280_temperature;BME280_humidity;BME280_pressure;Samples;Min_cycle;Max_cycle;Signal;HPM_P1;HPM_P2
2023/06/11 00:02:06;;;;;;;6.78;6.28;;;;;;;20.80;68.53;98471.19;5022569;28;103472;-74
2023/06/11 00:04:34;;;;;;;6.82;6.32;;;;;;;20.87;67.99;98457.91;5024398;28;103151;-76
2023/06/11 00:07:05;;;;;;;7.03;6.43;;;;;;;20.86;68.37;98467.81;5024604;28;102619;-75
2023/06/11 00:09:33;;;;;;;7.03;6.45;;;;;;;20.83;68.42;98462.78;5024844;28;102651;-75
2023/06/11 00:12:01;;;;;;;6.63;6.13;;;;;;;21.27;66.75;98454.88;5024501;27;103271;-76
2023/06/11 00:14:29;;;;;;;6.65;6.15;;;;;;;21.49;65.78;98450.41;5023898;28;103214;-75
2023/06/11 00:16:57;;;;;;;6.35;5.82;;;;;;;21.87;64.28;98443.91;5004581;28;103111;-75
2023/06/11 00:19:28;;;;;;;6.82;6.30;;;;;;;21.52;65.92;98452.72;5024298;28;102701;-75
2023/06/11 00:21:58;;;;;;;6.03;5.53;;;;;;;21.71;65.14;98453.00;5026017;27;103289;-75
2023/06/11 00:24:26;;;;;;;6.70;6.20;;;;;;;21.46;66.04;98453.47;5026419;28;103203;-75
2023/06/11 00:26:55;;;;;;;5.32;4.93;;;;;;;21.83;64.67;98445.28;5024514;28;102662;-76
2023/06/11 00:29:23;;;;;;;4.90;4.50;;;;;;;22.12;63.24;98445.25;5027421;28;102771;-75
2023/06/11 00:31:50;;;;;;;5.78;5.38;;;;;;;22.33;62.66;98449.84;5026290;28;103976;-76
2023/06/11 00:34:18;;;;;;;5.60;5.20;;;;;;;22.48;62.29;98446.03;5007600;28;103167;-74
2023/06/11 00:36:48;;;;;;;4.90;4.50;;;;;;;22.53;61.90;98442.78;5006393;28;103464;-75
2023/06/11 00:39:16;;;;;;;3.72;3.53;;;;;;;22.65;60.87;98443.16;5021441;28;104154;-74
2023/06/11 00:41:48;;;;;;;6.40;5.93;;;;;;;22.50;62.58;98448.56;5026600;28;103164;-76
2023/06/11 00:44:17;;;;;;;6.20;5.60;;;;;;;22.35;63.22;98456.69;5024265;28;103198;-74
2023/06/11 00:46:47;;;;;;;7.15;6.65;;;;;;;21.11;68.06;98466.59;5027576;27;103320;-76
2023/06/11 00:49:15;;;;;;;7.50;6.97;;;;;;;20.61;70.51;98463.66;5020174;27;102885;-74
2023/06/11 00:51:45;;;;;;;7.23;6.63;;;;;;;20.91;68.94;98467.28;5007533;28;103273;-74
2023/06/11 00:54:16;;;;;;;7.68;7.07;;;;;;;20.54;70.64;98468.06;5026548;28;103443;-76
2023/06/11 00:56:44;;;;;;;7.60;7.00;;;;;;;20.31;71.89;98477.97;5007081;28;102700;-75
2023/06/11 00:59:13;;;;;;;7.97;7.35;;;;;;;20.12;72.13;98474.69;5019019;28;103571;-74
2023/06/11 01:01:45;;;;;;;8.17;7.37;;;;;;;20.26;71.65;98469.63;5029609;28;104629;-75
2023/06/11 01:04:18;;;;;;;7.43;6.82;;;;;;;20.35;71.09;98479.28;5031300;28;103516;-74
2023/06/11 01:06:51;;;;;;;8.18;7.40;;;;;;;20.19;71.90;98472.13;5016111;28;102519;-75
2023/06/11 01:09:22;;;;;;;7.05;6.45;;;;;;;20.45;70.81;98466.47;5011519;28;102909;-76
2023/06/11 01:11:53;;;;;;;5.40;5.00;;;;;;;21.17;67.93;98465.03;5017845;28;103293;-76
2023/06/11 01:14:21;;;;;;;4.50;4.20;;;;;;;21.57;65.67;98463.75;5035661;28;102522;-74
2023/06/11 01:16:54;;;;;;;6.82;6.32;;;;;;;21.49;67.05;98471.91;5034748;28;103267;-75
2023/06/11 01:19:43;;;;;;;7.47;6.90;;;;;;;20.70;70.36;98478.69;5010921;28;103540;-74
2023/06/11 01:22:16;;;;;;;6.85;6.35;;;;;;;21.01;69.00;98476.75;5033926;28;102579;-74
2023/06/11 01:25:00;;;;;;;7.40;6.78;;;;;;;20.65;69.86;98473.88;5015442;28;102735;-74
2023/06/11 01:27:42;;;;;;;7.38;6.78;;;;;;;21.11;67.98;98480.03;5005843;28;103448;-75
2023/06/11 01:30:17;;;;;;;5.70;5.30;;;;;;;21.30;67.36;98471.47;5025174;28;102673;-74
2023/06/11 01:32:52;;;;;;;6.88;6.38;;;;;;;21.43;66.91;98472.66;5007484;28;103028;-74
2023/06/11 01:35:25;;;;;;;7.10;6.50;;;;;;;21.14;67.83;98474.28;5007040;28;103333;-74
2023/06/11 01:37:56;;;;;;;6.20;5.78;;;;;;;21.28;67.25;98473.47;5003601;28;102658;-74
2023/06/11 01:40:32;;;;;;;7.10;6.50;;;;;;;20.50;70.71;98469.44;5006094;28;104002;-76
2023/06/11 01:43:00;;;;;;;7.43;6.72;;;;;;;20.62;70.51;98481.44;5003579;28;103204;-74
2023/06/11 01:45:32;;;;;;;6.43;5.93;;;;;;;21.09;68.24;98467.78;5006062;28;103156;-76
2023/06/11 01:48:00;;;;;;;6.23;5.73;;;;;;;21.38;66.46;98463.31;5003280;28;102692;-74
2023/06/11 01:50:32;;;;;;;4.65;4.35;;;;;;;21.74;64.89;98459.84;5025915;28;103544;-75
2023/06/11 01:53:00;;;;;;;4.93;4.63;;;;;;;21.90;64.54;98459.69;5004718;28;103210;-75
2023/06/11 01:55:29;;;;;;;5.55;5.15;;;;;;;21.96;64.27;98461.63;5006538;28;105117;-75
2023/06/11 01:57:57;;;;;;;7.88;6.78;;;;;;;21.43;66.88;98470.81;5000253;28;103135;-73
2023/06/11 02:00:25;;;;;;;6.80;6.30;;;;;;;21.36;66.66;98468.00;5005831;28;102901;-75
2023/06/11 02:02:55;;;;;;;6.00;5.55;;;;;;;21.37;66.96;98467.00;5005958;28;103220;-74
2023/06/11 02:05:23;;;;;;;6.70;6.10;;;;;;;20.91;68.56;98473.50;5025242;28;103457;-74
2023/06/11 02:07:51;;;;;;;6.15;5.75;;;;;;;20.89;68.29;98469.28;5002810;28;102896;-75
2023/06/11 02:10:19;;;;;;;7.95;7.20;;;;;;;20.37;71.36;98474.56;5005922;28;103110;-75
2023/06/11 02:12:50;;;;;;;7.45;6.85;;;;;;;20.21;71.94;98478.13;5024107;28;104127;-74
2023/06/11 02:15:19;;;;;;;7.15;6.65;;;;;;;20.31;71.15;98467.22;5025512;28;103113;-75
2023/06/11 02:17:47;;;;;;;7.10;6.60;;;;;;;20.40;71.21;98466.16;5003463;28;104234;-74
2023/06/11 02:20:16;;;;;;;7.17;6.57;;;;;;;20.49;70.31;98462.41;5002102;28;104197;-74
2023/06/11 02:22:44;;;;;;;7.03;6.50;;;;;;;20.53;70.54;98475.28;5026034;28;104331;-75
2023/06/11 02:25:12;;;;;;;7.07;6.47;;;;;;;20.58;70.43;98464.00;5007466;28;103040;-74
2023/06/11 02:27:40;;;;;;;8.00;7.30;;;;;;;20.19;71.73;98470.28;5007375;28;103450;-74
2023/06/11 02:30:12;;;;;;;7.70;7.10;;;;;;;20.00;72.69;98481.47;5003030;28;104405;-75
2023/06/11 02:32:40;;;;;;;8.50;7.70;;;;;;;19.43;75.03;98482.66;5001270;28;103215;-75
2023/06/11 02:35:09;;;;;;;8.88;8.18;;;;;;;19.61;74.54;98486.81;5007403;28;104079;-74
2023/06/11 02:37:39;;;;;;;8.75;8.05;;;;;;;19.27;76.04;98482.69;5025802;28;102942;-74
2023/06/11 02:40:10;;;;;;;8.35;7.65;;;;;;;19.25;76.15;98488.22;4996602;28;103984;-75
2023/06/11 02:42:38;;;;;;;7.53;6.97;;;;;;;19.81;73.36;98491.78;5005715;28;103500;-74
2023/06/11 02:45:10;;;;;;;7.90;7.27;;;;;;;19.62;74.12;98487.66;5006815;28;103319;-75
2023/06/11 02:47:41;;;;;;;5.77;5.27;;;;;;;20.21;71.45;98484.34;5023867;28;102543;-75
2023/06/11 02:50:10;;;;;;;6.10;5.60;;;;;;;20.26;70.68;98480.34;5001752;28;102881;-74
2023/06/11 02:52:39;;;;;;;7.00;6.40;;;;;;;20.11;72.27;98493.63;5006736;28;104068;-75
2023/06/11 02:55:08;;;;;;;7.50;6.85;;;;;;;19.99;71.97;98495.88;5024294;28;103125;-75
2023/06/11 02:57:36;;;;;;;6.80;6.30;;;;;;;19.90;72.42;98506.81;5005351;28;102591;-74
2023/06/11 03:00:05;;;;;;;7.33;6.70;;;;;;;20.10;71.55;98503.50;5001254;28;103996;-74
2023/06/11 03:02:34;;;;;;;6.97;6.38;;;;;;;20.04;71.32;98504.22;5005903;28;103480;-74
2023/06/11 03:05:02;;;;;;;6.00;5.50;;;;;;;20.32;70.42;98511.81;5005966;28;103479;-75
2023/06/11 03:07:32;;;;;;;6.80;6.30;;;;;;;19.80;72.83;98511.53;5004058;28;102675;-75
2023/06/11 03:10:02;;;;;;;6.88;6.28;;;;;;;19.59;73.68;98509.44;5006166;28;102667;-74
2023/06/11 03:12:32;;;;;;;7.25;6.65;;;;;;;19.73;73.46;98514.09;5006214;28;104280;-74
2023/06/11 03:15:00;;;;;;;7.22;6.63;;;;;;;19.45;74.25;98510.16;5024746;28;103133;-74
2023/06/11 03:17:28;;;;;;;7.60;7.00;;;;;;;19.16;75.47;98517.84;5014376;28;103063;-74
2023/06/11 03:19:57;;;;;;;7.90;7.30;;;;;;;19.01;76.80;98513.19;5006251;28;103265;-74
2023/06/11 03:22:25;;;;;;;7.97;7.38;;;;;;;19.09;75.60;98523.88;5005681;28;103197;-73
2023/06/11 03:24:55;;;;;;;7.80;7.20;;;;;;;19.14;75.95;98517.19;5004788;28;102934;-74
2023/06/11 03:27:31;;;;;;;7.53;6.83;;;;;;;19.18;76.17;98515.84;5001736;28;103609;-75
2023/06/11 03:29:59;;;;;;;7.55;6.85;;;;;;;19.59;74.05;98525.53;4996141;28;102808;-76
2023/06/11 03:32:29;;;;;;;6.90;6.40;;;;;;;19.60;74.25;98521.81;5005778;28;103565;-76
2023/06/11 03:34:57;;;;;;;7.13;6.53;;;;;;;19.61;73.78;98526.16;5024270;28;103130;-75
2023/06/11 03:37:26;;;;;;;6.40;5.90;;;;;;;19.83;73.04;98528.09;5003068;27;102956;-75
2023/06/11 03:39:57;;;;;;;6.47;5.97;;;;;;;19.92;72.57;98527.06;5018333;27;103260;-75
2023/06/11 03:42:28;;;;;;;7.25;6.65;;;;;;;19.53;74.22;98518.16;5003479;28;103078;-75
2023/06/11 03:44:58;;;;;;;6.53;5.93;;;;;;;19.80;73.26;98528.44;5009577;27;104343;-76
2023/06/11 03:47:26;;;;;;;6.75;6.25;;;;;;;19.48;74.75;98531.25;5002369;27;102722;-77
2023/06/11 03:49:54;;;;;;;8.07;7.43;;;;;;;19.13;75.75;98523.53;5010344;28;103916;-76
2023/06/11 03:52:26;;;;;;;6.15;5.65;;;;;;;19.64;73.40;98528.50;5004662;28;103177;-75
2023/06/11 03:54:56;;;;;;;7.72;7.13;;;;;;;19.29;75.93;98535.06;4998092;27;103234;-75
2023/06/11 03:57:24;;;;;;;6.82;6.32;;;;;;;19.45;74.93;98536.94;5009881;28;102899;-73
2023/06/11 03:59:53;;;;;;;6.47;5.97;;;;;;;19.72;73.62;98536.53;5009230;28;104253;-75
2023/06/11 04:02:22;;;;;;;4.47;4.18;;;;;;;20.18;70.91;98530.28;5003260;28;104093;-76
2023/06/11 04:04:51;;;;;;;7.03;6.03;;;;;;;20.20;71.01;98536.34;5027209;28;103250;-75
2023/06/11 04:07:20;;;;;;;6.57;6.07;;;;;;;20.34;70.27;98547.34;5007827;28;102715;-75
2023/06/11 04:09:48;;;;;;;7.13;6.43;;;;;;;20.39;70.19;98551.19;5027984;28;102543;-73
2023/06/11 04:12:21;;;;;;;6.15;5.72;;;;;;;20.45;69.93;98539.75;4999106;28;104184;-75
2023/06/11 04:14:50;;;;;;;4.97;4.57;;;;;;;20.63;68.20;98547.53;5007713;28;103356;-75
2023/06/11 04:17:18;;;;;;;6.30;5.80;;;;;;;20.60;69.61;98550.56;5017538;28;103498;-75
2023/06/11 04:19:48;;;;;;;5.47;5.07;;;;;;;20.69;69.08;98552.16;5007891;28;102902;-75
2023/06/11 04:22:16;;;;;;;4.50;4.10;;;;;;;20.82;68.70;98552.41;5001403;28;104488;-76
2023/06/11 04:24:47;;;;;;;4.30;3.90;;;;;;;20.92;68.27;98547.63;5025002;27;105084;-76
2023/06/11 04:27:15;;;;;;;7.13;6.45;;;;;;;20.88;69.12;98540.97;5009547;28;102642;-76
2023/06/11 04:29:44;;;;;;;4.87;4.47;;;;;;;20.98;68.17;98544.22;5008510;28;103030;-74
2023/06/11 04:32:16;;;;;;;4.93;4.63;;;;;;;21.06;68.19;98544.16;5004755;28;103253;-78
2023/06/11 04:34:48;;;;;;;5.47;5.07;;;;;;;21.11;67.98;98541.78;5009342;28;103058;-80
2023/06/11 04:37:19;;;;;;;5.57;5.18;;;;;;;21.21;67.83;98547.78;5007781;28;102629;-79
2023/06/11 04:39:50;;;;;;;6.30;5.80;;;;;;;20.87;69.58;98547.34;5009668;28;103115;-77
2023/06/11 04:42:19;;;;;;;4.43;4.13;;;;;;;21.23;68.82;98551.09;5004459;28;105194;-76
2023/06/11 04:44:47;;;;;;;4.87;4.47;;;;;;;21.19;68.05;98549.78;5021715;28;103675;-79
2023/06/11 04:47:16;;;;;;;6.75;6.15;;;;;;;20.83;69.28;98547.91;5009347;28;102994;-79
2023/06/11 04:49:44;;;;;;;7.38;6.78;;;;;;;20.42;71.23;98560.72;5027856;28;103351;-79
2023/06/11 04:52:15;;;;;;;7.32;6.63;;;;;;;20.62;71.50;98552.06;5007181;28;103620;-78
2023/06/11 04:54:47;;;;;;;7.53;6.93;;;;;;;19.87;74.06;98560.78;5021318;28;103201;-78
2023/06/11 04:57:15;;;;;;;7.97;7.28;;;;;;;19.76;74.50;98553.09;5008664;28;102661;-78
2023/06/11 04:59:43;;;;;;;8.02;7.32;;;;;;;19.76;75.29;98559.28;5027330;28;102756;-78
2023/06/11 05:02:10;;;;;;;7.25;6.65;;;;;;;19.80;75.42;98560.63;5007314;28;103561;-79
2023/06/11 05:04:38;;;;;;;7.37;6.77;;;;;;;20.27;73.60;98563.31;5017587;27;103917;-79
2023/06/11 05:07:07;;;;;;;5.90;5.50;;;;;;;20.69;71.66;98565.56;5007335;28;103319;-80
2023/06/11 05:09:35;;;;;;;7.10;6.55;;;;;;;20.41;71.93;98559.03;5007009;28;105323;-82
2023/06/11 05:12:07;;;;;;;6.35;5.85;;;;;;;21.01;70.46;98551.94;5008748;28;104117;-78
2023/06/11 05:14:37;;;;;;;6.10;5.60;;;;;;;21.14;68.93;98549.50;4998149;28;103349;-78
2023/06/11 05:17:05;;;;;;;5.70;5.30;;;;;;;21.44;67.54;98553.09;5009008;28;102577;-78
2023/06/11 05:19:33;;;;;;;5.40;4.90;;;;;;;21.55;67.08;98543.75;5026966;28;102777;-78
2023/06/11 05:22:01;;;;;;;4.80;4.50;;;;;;;21.70;66.11;98548.09;5026907;28;103163;-79
2023/06/11 05:24:30;;;;;;;5.88;5.38;;;;;;;21.87;66.21;98549.63;4998340;28;103149;-78
2023/06/11 05:27:01;;;;;;;5.37;4.97;;;;;;;21.87;65.86;98552.31;5006144;27;103958;-82
2023/06/11 05:29:33;;;;;;;4.60;4.30;;;;;;;22.04;64.99;98558.34;5008354;28;104140;-76
2023/06/11 05:32:02;;;;;;;5.60;5.10;;;;;;;21.76;65.82;98562.66;5003326;28;103640;-76
2023/06/11 05:34:32;;;;;;;6.15;5.75;;;;;;;21.41;67.38;98568.75;4999835;28;104958;-75
2023/06/11 05:37:06;;;;;;;5.70;5.20;;;;;;;21.90;65.28;98568.09;5006027;28;102811;-79
2023/06/11 05:39:35;;;;;;;5.00;4.70;;;;;;;22.13;65.10;98562.59;5004355;28;104587;-81
2023/06/11 05:42:06;;;;;;;5.13;4.72;;;;;;;22.37;64.69;98561.47;5005079;28;103000;-80
2023/06/11 05:44:35;;;;;;;5.38;4.97;;;;;;;22.31;63.81;98563.06;5001091;28;103443;-84
2023/06/11 05:47:04;;;;;;;6.03;5.60;;;;;;;22.36;63.47;98568.69;5021161;28;102955;-81
2023/06/11 05:49:33;;;;;;;6.13;5.57;;;;;;;22.15;64.67;98565.94;5006093;28;103311;-79
2023/06/11 05:52:00;;;;;;;5.90;5.40;;;;;;;22.51;63.11;98571.38;5021873;28;103272;-81
2023/06/11 05:54:28;;;;;;;5.68;5.28;;;;;;;22.68;63.37;98572.00;5003742;28;104215;-80
2023/06/11 05:56:57;;;;;;;6.10;5.47;;;;;;;22.45;63.05;98570.28;5001461;28;104133;-83
2023/06/11 05:59:25;;;;;;;5.15;4.72;;;;;;;22.86;62.29;98572.38;5003891;28;102805;-82
2023/06/11 06:01:55;;;;;;;4.95;4.65;;;;;;;22.88;61.56;98576.56;5021800;27;105937;-85
2023/06/11 06:04:25;;;;;;;5.57;5.18;;;;;;;22.85;61.62;98576.13;5002750;27;103751;-81
2023/06/11 06:06:53;;;;;;;5.95;5.45;;;;;;;22.84;61.76;98586.06;5016681;27;102774;-84
2023/06/11 06:09:21;;;;;;;4.73;4.43;;;;;;;23.16;60.94;98582.00;5005662;28;103160;-83
2023/06/11 06:11:49;;;;;;;4.70;4.40;;;;;;;23.47;60.33;98577.13;5000219;28;103340;-79
2023/06/11 06:14:17;;;;;;;5.30;4.90;;;;;;;23.39;60.54;98574.56;5002571;27;103517;-85
2023/06/11 06:16:46;;;;;;;5.67;5.27;;;;;;;23.12;61.68;98585.28;5003335;28;102970;-82
2023/06/11 06:19:20;;;;;;;4.97;4.60;;;;;;;23.25;61.52;98591.63;5002841;28;103051;-78
2023/06/11 06:21:48;;;;;;;6.03;5.50;;;;;;;23.30;60.70;98586.50;5002013;28;103386;-79
2023/06/11 06:24:16;;;;;;;6.13;5.63;;;;;;;22.99;61.28;98596.75;5004884;27;102875;-82
2023/06/11 06:26:45;;;;;;;5.80;5.37;;;;;;;23.00;60.05;98601.97;5000622;28;103426;-78
2023/06/11 06:29:14;;;;;;;5.80;5.40;;;;;;;23.40;60.44;98587.03;5004233;28;103632;-79
2023/06/11 06:31:42;;;;;;;5.72;5.13;;;;;;;23.43;59.91;98596.59;5003582;27;104266;-81
2023/06/11 06:34:10;;;;;;;5.43;5.03;;;;;;;23.63;58.65;98609.19;5003109;28;104762;-81
2023/06/11 06:36:40;;;;;;;5.90;5.40;;;;;;;23.02;60.93;98601.75;5003843;27;103155;-82
2023/06/11 06:39:09;;;;;;;4.97;4.57;;;;;;;23.83;59.96;98600.44;5004588;28;104092;-77
2023/06/11 06:41:38;;;;;;;6.00;5.50;;;;;;;23.27;60.79;98600.34;5001874;28;104082;-79
2023/06/11 06:44:11;;;;;;;6.13;5.63;;;;;;;23.77;58.19;98598.53;5000756;27;103303;-79
2023/06/11 06:46:39;;;;;;;5.93;5.32;;;;;;;23.98;58.19;98601.13;5001692;27;102905;-79
2023/06/11 06:49:07;;;;;;;5.32;4.93;;;;;;;24.11;57.33;98596.69;4999491;28;104290;-78
2023/06/11 06:51:36;;;;;;;5.57;5.18;;;;;;;24.32;57.58;98597.63;5001886;28;103175;-80
2023/06/11 06:54:07;;;;;;;5.57;5.18;;;;;;;24.52;56.73;98599.38;5005522;28;104288;-81
2023/06/11 06:56:36;;;;;;;5.70;5.20;;;;;;;24.57;55.90;98596.06;5003413;28;103086;-79
2023/06/11 06:59:07;;;;;;;6.00;5.50;;;;;;;24.58;55.42;98605.84;5024282;27;103138;-79
2023/06/11 07:01:36;;;;;;;5.53;5.10;;;;;;;24.76;55.68;98601.53;5001252;28;103945;-81
2023/06/11 07:04:07;;;;;;;5.05;4.65;;;;;;;25.09;54.30;98596.28;5005270;28;104170;-80
2023/06/11 07:06:36;;;;;;;4.82;4.43;;;;;;;25.32;53.08;98601.25;5003390;28;102918;-80
2023/06/11 07:09:08;;;;;;;5.97;5.47;;;;;;;25.41;53.11;98599.19;5004173;28;103853;-80
2023/06/11 07:11:37;;;;;;;5.80;5.30;;;;;;;25.03;54.75;98598.94;5005215;28;104550;-81
2023/06/11 07:14:07;;;;;;;5.60;5.20;;;;;;;24.92;53.33;98594.16;5002339;28;103174;-81
2023/06/11 07:16:35;;;;;;;6.00;5.50;;;;;;;24.68;54.59;98593.63;5020932;28;103035;-78
2023/06/11 07:19:05;;;;;;;5.35;4.95;;;;;;;25.22;54.67;98595.44;5002325;28;104349;-82
2023/06/11 07:21:35;;;;;;;6.00;5.50;;;;;;;25.40;53.82;98587.56;5002431;28;104394;-79
2023/06/11 07:24:07;;;;;;;5.50;5.10;;;;;;;25.55;53.20;98592.78;5002948;28;103124;-82
2023/06/11 07:26:42;;;;;;;5.80;5.30;;;;;;;25.14;53.55;98593.78;4998540;28;103351;-79
2023/06/11 07:29:13;;;;;;;5.90;5.40;;;;;;;25.20;53.08;98592.13;5002661;28;103486;-78
2023/06/11 07:31:44;;;;;;;5.70;5.20;;;;;;;25.60;52.75;98588.41;5003635;28;104318;-81
2023/06/11 07:34:15;;;;;;;5.50;5.10;;;;;;;25.66;51.43;98589.44;5009042;28;103260;-79
2023/06/11 07:36:45;;;;;;;6.65;5.00;;;;;;;25.93;51.85;98594.63;5005781;28;103290;-81
2023/06/11 07:39:14;;;;;;;5.30;4.78;;;;;;;26.56;50.67;98594.88;5021675;28;103103;-82
2023/06/11 07:41:43;;;;;;;6.15;5.47;;;;;;;26.40;49.52;98589.94;5026154;28;103410;-79
2023/06/11 07:44:12;;;;;;;5.65;5.15;;;;;;;26.61;49.04;98592.34;5002308;28;105914;-80
2023/06/11 07:46:40;;;;;;;5.20;4.80;;;;;;;26.90;49.11;98596.41;5005550;28;103340;-80
2023/06/11 07:49:08;;;;;;;6.40;5.85;;;;;;;26.82;48.35;98589.38;5002980;27;104431;-81
2023/06/11 07:51:37;;;;;;;5.63;5.23;;;;;;;26.66;49.33;98592.56;5005200;28;102987;-79
2023/06/11 07:54:08;;;;;;;5.50;5.00;;;;;;;26.08;50.46;98590.84;5006844;28;104485;-77
2023/06/11 07:56:36;;;;;;;5.28;4.85;;;;;;;26.91;47.41;98593.50;5003424;28;103806;-78
2023/06/11 07:59:05;;;;;;;5.47;5.07;;;;;;;27.26;47.20;98598.47;5003458;28;104285;-78
2023/06/11 08:01:33;;;;;;;5.60;5.10;;;;;;;27.41;46.55;98599.84;5004281;28;105821;-77
2023/06/11 08:04:04;;;;;;;5.40;5.00;;;;;;;26.77;47.55;98591.03;5006967;28;103139;-79
2023/06/11 08:06:33;;;;;;;5.65;5.18;;;;;;;27.61;46.27;98596.97;5005153;28;103283;-77
2023/06/11 08:09:01;;;;;;;5.35;4.95;;;;;;;27.96;46.16;98600.81;5023610;27;104007;-77
2023/06/11 08:11:29;;;;;;;5.60;5.10;;;;;;;27.95;45.73;98591.03;5017021;27;103745;-77
2023/06/11 08:13:57;;;;;;;5.50;5.00;;;;;;;28.26;45.70;98583.84;5023725;27;103592;-80
2023/06/11 08:16:26;;;;;;;5.13;4.73;;;;;;;28.48;44.64;98585.03;5017046;27;103489;-77
2023/06/11 08:18:55;;;;;;;4.70;4.40;;;;;;;29.33;43.88;98583.06;5020212;27;103342;-80
2023/06/11 08:21:23;;;;;;;5.13;4.72;;;;;;;29.08;43.68;98589.47;5022480;27;103487;-78
2023/06/11 08:23:54;;;;;;;5.32;4.82;;;;;;;28.34;44.27;98583.53;5022130;27;103172;-80
2023/06/11 08:26:22;;;;;;;5.20;4.80;;;;;;;29.00;42.86;98584.34;5024941;27;102873;-80
2023/06/11 08:28:50;;;;;;;5.00;4.50;;;;;;;29.20;42.41;98574.00;5006000;28;103286;-80
2023/06/11 08:31:18;;;;;;;5.55;5.05;;;;;;;28.44;42.89;98578.38;5005810;28;103500;-80
2023/06/11 08:33:51;;;;;;;5.22;4.82;;;;;;;29.38;41.24;98575.03;5023581;28;103333;-79
2023/06/11 08:36:18;;;;;;;4.60;4.30;;;;;;;30.37;43.16;98573.03;5023960;27;102821;-80
2023/06/11 08:38:47;;;;;;;5.20;4.80;;;;;;;30.10;41.29;98577.31;5006697;28;104306;-81
2023/06/11 08:41:15;;;;;;;5.13;4.72;;;;;;;30.40;40.82;98569.84;5023989;27;104457;-81
2023/06/11 08:43:43;;;;;;;4.78;4.38;;;;;;;29.86;38.72;98568.38;5024686;28;103131;-79
2023/06/11 08:46:14;;;;;;;5.00;4.50;;;;;;;30.50;39.32;98576.56;5027479;27;102834;-80
2023/06/11 08:48:43;;;;;;;4.73;4.33;;;;;;;30.76;40.07;98562.38;5003052;27;103019;-77
2023/06/11 08:51:13;;;;;;;4.97;4.53;;;;;;;30.76;38.75;98562.38;5007428;28;104408;-79
2023/06/11 08:53:42;;;;;;;4.82;4.43;;;;;;;30.89;38.40;98564.81;5007839;28;103381;-80
2023/06/11 08:56:10;;;;;;;4.80;4.40;;;;;;;30.69;38.46;98561.69;5025890;28;102667;-80
2023/06/11 08:58:41;;;;;;;4.63;4.22;;;;;;;31.16;39.20;98557.69;5024202;28;104004;-80
2023/06/11 09:01:12;;;;;;;4.82;4.53;;;;;;;31.30;38.78;98560.97;5025928;28;103142;-80
2023/06/11 09:03:40;;;;;;;5.78;4.30;;;;;;;30.54;37.90;98558.69;5028310;27;103225;-79
2023/06/11 09:06:09;;;;;;;5.30;4.60;;;;;;;30.62;36.20;98569.19;5027395;28;102606;-80
2023/06/11 09:08:38;;;;;;;4.53;4.15;;;;;;;30.84;34.44;98565.56;5031769;27;103273;-74
2023/06/11 09:11:06;;;;;;;4.47;4.18;;;;;;;31.72;33.86;98553.22;5008201;28;104085;-79
2023/06/11 09:13:34;;;;;;;4.35;3.95;;;;;;;31.08;34.70;98547.19;5026121;27;103138;-81
2023/06/11 09:16:02;;;;;;;5.35;3.90;;;;;;;30.94;35.78;98556.75;5023935;27;102577;-80
2023/06/11 09:18:30;;;;;;;4.85;4.35;;;;;;;31.20;33.87;98558.88;5018581;27;103851;-80
2023/06/11 09:21:00;;;;;;;4.23;3.93;;;;;;;31.51;34.14;98563.81;5007783;28;104476;-81
2023/06/11 09:23:30;;;;;;;4.57;4.20;;;;;;;31.94;33.12;98559.56;5024409;28;103112;-80
2023/06/11 09:26:02;;;;;;;4.22;3.90;;;;;;;32.17;34.59;98548.41;5024443;27;102919;-79
2023/06/11 09:28:31;;;;;;;5.32;4.18;;;;;;;32.85;33.70;98547.06;5019721;27;104387;-80
2023/06/11 09:31:01;;;;;;;5.28;4.18;;;;;;;32.05;34.21;98545.81;5006707;28;103409;-80
2023/06/11 09:33:31;;;;;;;4.63;4.28;;;;;;;31.30;34.63;98559.03;5023955;28;103801;-79
2023/06/11 09:36:00;;;;;;;5.68;4.35;;;;;;;31.93;31.50;98553.25;5023861;28;102905;-80
2023/06/11 09:38:28;;;;;;;5.30;4.60;;;;;;;32.30;32.73;98542.59;5005079;27;103119;-78
2023/06/11 09:40:57;;;;;;;4.47;4.07;;;;;;;32.23;31.35;98541.94;5005233;28;104123;-79
2023/06/11 09:43:27;;;;;;;4.60;4.05;;;;;;;31.71;30.65;98546.09;5026046;27;102939;-80
2023/06/11 09:45:56;;;;;;;4.53;4.13;;;;;;;32.60;30.40;98550.38;5007574;28;102789;-80
2023/06/11 09:48:26;;;;;;;4.47;4.10;;;;;;;33.02;29.93;98545.06;5022831;27;102994;-80
2023/06/11 09:50:54;;;;;;;4.97;4.00;;;;;;;32.99;33.78;98551.06;5021178;27;104818;-80
2023/06/11 09:53:23;;;;;;;4.50;4.20;;;;;;;33.08;30.33;98557.75;5002565;28;104343;-80
2023/06/11 09:55:52;;;;;;;4.47;4.07;;;;;;;33.17;29.66;98545.25;5006102;27;102891;-79
2023/06/11 09:58:40;;;;;;;4.93;4.10;;;;;;;32.86;29.12;98554.22;5002936;27;104234;-79
2023/06/11 10:01:10;;;;;;;5.72;4.20;;;;;;;33.15;30.07;98550.97;5024176;27;104153;-79
2023/06/11 10:03:38;;;;;;;6.38;4.30;;;;;;;32.95;30.54;98555.41;5005810;28;103060;-80
2023/06/11 10:06:11;;;;;;;5.47;4.97;;;;;;;33.68;30.22;98544.63;4998144;27;103615;-80
2023/06/11 10:08:48;;;;;;;5.18;4.28;;;;;;;33.39;30.71;98539.69;5003325;28;104522;-79
2023/06/11 10:11:22;;;;;;;5.15;4.75;;;;;;;31.19;32.37;98551.75;5024513;27;103367;-80
2023/06/11 10:13:59;;;;;;;5.90;4.72;;;;;;;32.35;29.23;98548.13;5002932;28;104107;-80
2023/06/11 10:16:28;;;;;;;4.35;3.92;;;;;;;32.93;31.82;98541.97;5023480;28;103160;-80
2023/06/11 10:19:05;;;;;;;5.80;4.47;;;;;;;33.23;30.09;98547.78;5005923;28;102777;-80
2023/06/11 10:21:36;;;;;;;5.65;4.20;;;;;;;31.44;30.29;98549.44;5023251;27;104048;-82
2023/06/11 10:24:05;;;;;;;5.20;4.50;;;;;;;30.99;30.44;98545.97;5014370;27;104338;-81
2023/06/11 10:26:34;;;;;;;5.00;4.57;;;;;;;31.65;29.58;98545.19;4986952;28;103901;-82
2023/06/11 10:29:11;;;;;;;5.40;4.25;;;;;;;32.31;29.98;98544.22;5024475;27;105123;-78
2023/06/11 10:31:41;;;;;;;4.40;4.00;;;;;;;32.53;28.75;98542.34;5022305;27;103426;-77
2023/06/11 10:34:14;;;;;;;4.97;4.45;;;;;;;31.78;30.08;98541.25;5018740;27;103225;-77
2023/06/11 10:36:42;;;;;;;5.27;4.50;;;;;;;32.51;31.79;98539.03;5027287;27;102941;-77
2023/06/11 10:39:20;;;;;;;4.95;4.45;;;;;;;31.50;29.84;98531.28;4988829;27;103051;-76
2023/06/11 10:41:59;;;;;;;5.73;4.13;;;;;;;30.39;31.06;98540.13;5007290;28;103316;-75
2023/06/11 10:44:30;;;;;;;4.80;4.20;;;;;;;29.53;32.04;98542.75;5014817;27;103362;-75
2023/06/11 10:47:02;;;;;;;4.50;4.10;;;;;;;32.29;30.14;98534.63;5022412;28;102617;-75
2023/06/11 10:49:32;;;;;;;4.88;4.28;;;;;;;32.76;29.42;98533.03;5024465;28;102919;-76
2023/06/11 10:52:04;;;;;;;5.10;4.70;;;;;;;32.86;29.75;98532.31;5004784;28;103214;-77
2023/06/11 10:54:34;;;;;;;5.38;4.88;;;;;;;32.73;29.23;98543.69;5023881;27;103172;-75
2023/06/11 10:57:02;;;;;;;6.50;4.70;;;;;;;33.18;29.87;98549.66;5022993;27;103369;-76
2023/06/11 10:59:32;;;;;;;5.50;4.50;;;;;;;33.61;29.71;98534.97;5006274;28;102985;-75
2023/06/11 11:02:00;;;;;;;6.15;4.50;;;;;;;33.54;29.39;98534.34;5023064;28;103226;-76
2023/06/11 11:04:28;;;;;;;4.82;4.43;;;;;;;33.56;29.59;98535.72;5017998;27;104228;-75
2023/06/11 11:07:03;;;;;;;4.88;4.35;;;;;;;33.81;30.17;98541.41;5022124;27;102709;-76
2023/06/11 11:09:32;;;;;;;5.63;4.68;;;;;;;32.27;29.62;98532.16;5023021;27;102695;-74
2023/06/11 11:12:00;;;;;;;5.15;4.65;;;;;;;32.93;30.41;98541.16;5014396;27;103889;-77
2023/06/11 11:14:31;;;;;;;4.72;4.13;;;;;;;33.06;29.92;98535.31;5004891;27;103526;-76
2023/06/11 11:17:00;;;;;;;4.35;4.05;;;;;;;33.83;28.07;98535.66;5020629;28;102790;-75
2023/06/11 11:19:30;;;;;;;4.10;3.80;;;;;;;33.87;28.52;98525.00;5003452;28;104145;-75
2023/06/11 11:22:00;;;;;;;5.23;4.73;;;;;;;30.85;31.78;98529.03;5014294;27;104300;-76
2023/06/11 11:24:28;;;;;;;5.72;4.63;;;;;;;30.44;33.75;98521.97;5018046;28;103366;-78
2023/06/11 11:26:56;;;;;;;5.45;4.95;;;;;;;29.93;33.42;98519.22;5021440;28;102852;-78
2023/06/11 11:29:26;;;;;;;5.30;4.80;;;;;;;32.03;30.46;98517.91;5021630;28;102768;-77
2023/06/11 11:31:56;;;;;;;4.30;3.90;;;;;;;33.68;29.73;98514.50;4998818;28;103346;-79
2023/06/11 11:34:25;;;;;;;4.70;4.30;;;;;;;33.99;28.99;98511.94;5011714;27;103337;-78
2023/06/11 11:36:55;;;;;;;5.05;4.60;;;;;;;33.73;30.78;98514.53;5019992;27;103030;-79